createdAt,value
2019-01-09T00:00:13.969Z,1.13
2019-01-09T00:02:39.801Z,1.10
2019-01-09T00:05:05.740Z,1.40
2019-01-09T00:07:31.706Z,1.30
2019-01-09T00:09:57.553Z,1.67
2019-01-09T00:12:23.416Z,1.40
2019-01-09T00:14:49.393Z,1.93
2019-01-09T00:17:15.213Z,1.57
2019-01-09T00:19:41.148Z,1.60
2019-01-09T00:22:07.116Z,1.90
2019-01-09T00:24:32.960Z,1.73
2019-01-09T00:26:58.821Z,1.27
2019-01-09T00:29:24.675Z,1.50
2019-01-09T00:31:50.528Z,1.57
2019-01-09T00:34:16.372Z,2.10
2019-01-09T00:36:42.299Z,1.73
2019-01-09T00:39:08.239Z,1.93
2019-01-09T00:41:34.070Z,1.33
2019-01-09T00:43:59.994Z,1.50
2019-01-09T00:46:25.814Z,1.20
2019-01-09T00:48:51.777Z,1.00
2019-01-09T00:51:17.619Z,1.63
2019-01-09T00:53:43.437Z,1.30
2019-01-09T00:56:09.415Z,1.60
2019-01-09T00:58:35.328Z,1.70
2019-01-09T01:01:01.273Z,1.97
2019-01-09T01:03:33.685Z,1.90
2019-01-09T01:06:15.395Z,1.23
2019-01-09T01:08:47.763Z,1.27
2019-01-09T01:11:35.034Z,1.40
2019-01-09T01:14:22.973Z,1.27
2019-01-09T01:17:13.768Z,1.30
2019-01-09T01:20:01.666Z,1.10
2019-01-09T01:22:39.744Z,1.20
2019-01-09T01:25:24.843Z,1.07
2019-01-09T01:27:54.490Z,1.50
2019-01-09T01:30:56.472Z,1.20
2019-01-09T01:33:43.539Z,1.30
2019-01-09T01:36:29.873Z,1.20
2019-01-09T01:39:05.547Z,1.00
2019-01-09T01:41:41.408Z,1.23
2019-01-09T01:44:29.022Z,1.40
2019-01-09T01:47:10.504Z,1.43
2019-01-09T01:49:59.500Z,1.50
2019-01-09T01:52:47.590Z,1.10
2019-01-09T01:55:29.517Z,1.13
2019-01-09T01:58:13.757Z,1.30
2019-01-09T02:01:03.352Z,1.53
2019-01-09T02:03:38.582Z,1.47
2019-01-09T02:06:08.260Z,1.20
2019-01-09T02:08:56.348Z,1.33
2019-01-09T02:11:35.162Z,1.50
2019-01-09T02:14:21.317Z,1.20
2019-01-09T02:17:06.343Z,1.40
2019-01-09T02:19:50.538Z,1.20
2019-01-09T02:22:35.307Z,1.20
2019-01-09T02:25:17.368Z,1.20
2019-01-09T02:28:04.903Z,1.23
2019-01-09T02:30:37.504Z,1.50
2019-01-09T02:33:03.444Z,1.27
2019-01-09T02:35:29.308Z,1.47
2019-01-09T02:37:55.184Z,1.90
2019-01-09T02:40:21.044Z,1.30
2019-01-09T02:42:46.901Z,1.40
2019-01-09T02:45:12.770Z,1.30
2019-01-09T02:47:38.602Z,1.20
2019-01-09T02:50:04.927Z,1.87
2019-01-09T02:52:30.786Z,2.40
2019-01-09T02:54:56.627Z,1.43
2019-01-09T02:57:24.532Z,1.50
2019-01-09T02:59:50.186Z,1.37
2019-01-09T03:02:16.007Z,1.20
2019-01-09T03:04:41.841Z,1.73
2019-01-09T03:07:07.792Z,1.50
2019-01-09T03:09:33.628Z,1.90
2019-01-09T03:11:59.452Z,2.03
2019-01-09T03:14:25.328Z,1.30
2019-01-09T03:16:51.142Z,1.60
2019-01-09T03:19:17.009Z,3.17
2019-01-09T03:21:42.935Z,1.70
2019-01-09T03:24:09.086Z,1.50
2019-01-09T03:26:34.926Z,1.40
2019-01-09T03:29:00.753Z,1.20
2019-01-09T03:31:26.599Z,1.80
2019-01-09T03:33:52.466Z,1.67
2019-01-09T03:36:18.407Z,1.27
2019-01-09T03:38:44.249Z,1.40
2019-01-09T03:41:10.078Z,1.53
2019-01-09T03:43:35.917Z,1.90
2019-01-09T03:46:01.749Z,1.90
2019-01-09T03:48:27.608Z,2.20
2019-01-09T03:50:53.460Z,1.40
2019-01-09T03:53:19.334Z,1.20
2019-01-09T03:55:45.163Z,1.80
2019-01-09T03:58:10.986Z,1.40
2019-01-09T04:00:36.844Z,1.40
2019-01-09T04:03:02.652Z,1.50
2019-01-09T04:05:28.487Z,1.80
2019-01-09T04:07:54.395Z,1.63
2019-01-09T04:10:20.247Z,1.77
2019-01-09T04:12:46.090Z,1.40
2019-01-09T04:15:12.043Z,1.70
2019-01-09T04:17:37.884Z,1.30
2019-01-09T04:20:04.819Z,1.47
2019-01-09T04:22:30.659Z,2.00
2019-01-09T04:24:56.475Z,1.90
2019-01-09T04:27:22.336Z,1.50
2019-01-09T04:29:48.175Z,1.77
2019-01-09T04:32:14.090Z,1.73
2019-01-09T04:34:40.139Z,2.00
2019-01-09T04:37:06.169Z,1.60
2019-01-09T04:39:32.080Z,1.60
2019-01-09T04:42:00.660Z,2.60
2019-01-09T04:44:26.579Z,1.90
2019-01-09T04:46:52.395Z,2.03
2019-01-09T04:49:18.222Z,1.40
2019-01-09T04:51:44.084Z,1.90
2019-01-09T04:54:09.930Z,1.40
2019-01-09T04:56:35.757Z,1.87
2019-01-09T04:59:01.625Z,1.80
2019-01-09T05:01:27.502Z,1.60
2019-01-09T05:03:53.367Z,1.40
2019-01-09T05:06:19.197Z,1.50
2019-01-09T05:08:45.047Z,1.80
2019-01-09T05:11:10.941Z,1.23
2019-01-09T05:13:36.777Z,1.60
2019-01-09T05:16:02.601Z,1.40
2019-01-09T05:18:28.441Z,1.70
2019-01-09T05:20:54.311Z,1.80
2019-01-09T05:23:20.141Z,1.93
2019-01-09T05:25:45.964Z,1.47
2019-01-09T05:28:11.802Z,1.60
2019-01-09T05:30:37.648Z,1.50
2019-01-09T05:33:03.488Z,1.50
2019-01-09T05:35:29.386Z,1.97
2019-01-09T05:37:55.442Z,1.70
2019-01-09T05:40:21.351Z,2.20
2019-01-09T05:42:47.204Z,1.70
2019-01-09T05:45:13.053Z,1.27
2019-01-09T05:47:39.004Z,3.30
2019-01-09T05:50:05.524Z,1.97
2019-01-09T05:52:31.380Z,1.53
2019-01-09T05:54:57.233Z,1.60
2019-01-09T05:57:23.071Z,1.90
2019-01-09T05:59:48.929Z,1.50
2019-01-09T06:02:14.782Z,1.50
2019-01-09T06:04:40.643Z,1.57
2019-01-09T06:07:06.532Z,2.00
2019-01-09T06:09:32.397Z,1.80
2019-01-09T06:11:58.239Z,1.57
2019-01-09T06:14:24.097Z,3.40
2019-01-09T06:16:49.968Z,1.50
2019-01-09T06:19:15.825Z,1.83
2019-01-09T06:21:44.721Z,1.90
2019-01-09T06:24:10.586Z,1.50
2019-01-09T06:26:36.430Z,1.50
2019-01-09T06:29:02.345Z,1.63
2019-01-09T06:31:28.213Z,1.50
2019-01-09T06:33:54.062Z,1.33
2019-01-09T06:36:19.917Z,1.53
2019-01-09T06:38:45.878Z,1.70
2019-01-09T06:41:11.675Z,1.70
2019-01-09T06:43:37.607Z,1.70
2019-01-09T06:46:03.545Z,1.57
2019-01-09T06:48:29.356Z,1.50
2019-01-09T06:50:55.199Z,2.00
2019-01-09T06:53:21.035Z,2.00
2019-01-09T06:55:46.990Z,2.03
2019-01-09T06:58:12.925Z,1.63
2019-01-09T07:00:38.757Z,1.57
2019-01-09T07:03:04.565Z,1.73
2019-01-09T07:05:30.401Z,1.53
2019-01-09T07:07:56.211Z,2.23
2019-01-09T07:10:22.063Z,4.43
2019-01-09T07:12:47.882Z,1.73
2019-01-09T07:15:13.906Z,2.00
2019-01-09T07:17:39.840Z,2.13
2019-01-09T07:20:05.709Z,1.77
2019-01-09T07:22:31.538Z,1.90
2019-01-09T07:24:57.402Z,1.57
2019-01-09T07:27:23.312Z,2.00
2019-01-09T07:29:49.141Z,1.50
2019-01-09T07:32:14.956Z,2.10
2019-01-09T07:34:40.783Z,1.70
2019-01-09T07:37:06.602Z,1.70
2019-01-09T07:39:32.450Z,1.93
2019-01-09T07:41:58.301Z,1.93
2019-01-09T07:44:24.157Z,1.80
2019-01-09T07:46:49.993Z,1.80
2019-01-09T07:49:15.824Z,3.53
2019-01-09T07:51:41.756Z,2.00
2019-01-09T07:54:07.592Z,2.97
2019-01-09T07:56:33.530Z,1.70
2019-01-09T07:58:59.388Z,1.83
2019-01-09T08:01:25.233Z,2.00
2019-01-09T08:03:51.053Z,1.87
2019-01-09T08:06:16.928Z,1.70
2019-01-09T08:08:42.744Z,2.43
2019-01-09T08:11:08.642Z,1.77
2019-01-09T08:13:34.484Z,1.70
2019-01-09T08:16:00.333Z,1.80
2019-01-09T08:18:26.177Z,1.97
2019-01-09T08:20:52.006Z,1.73
2019-01-09T08:23:17.821Z,1.80
2019-01-09T08:25:43.635Z,2.10
2019-01-09T08:28:09.489Z,1.87
2019-01-09T08:30:35.327Z,1.60
2019-01-09T08:33:01.130Z,1.80
2019-01-09T08:35:26.982Z,1.77
2019-01-09T08:37:52.793Z,2.07
2019-01-09T08:40:18.737Z,1.87
2019-01-09T08:42:44.649Z,1.70
2019-01-09T08:45:10.610Z,1.63
2019-01-09T08:47:36.481Z,1.70
2019-01-09T08:50:04.107Z,1.80
2019-01-09T08:52:30.006Z,1.93
2019-01-09T08:54:55.848Z,1.70
2019-01-09T08:57:21.793Z,1.50
2019-01-09T08:59:47.631Z,1.50
2019-01-09T09:02:13.454Z,1.87
2019-01-09T09:04:39.307Z,1.40
2019-01-09T09:07:05.129Z,1.70
2019-01-09T09:09:31.107Z,1.27
2019-01-09T09:11:56.956Z,1.70
2019-01-09T09:14:22.808Z,1.50
2019-01-09T09:16:48.785Z,1.93
2019-01-09T09:19:15.828Z,1.60
2019-01-09T09:21:41.757Z,1.80
2019-01-09T09:24:07.614Z,1.60
2019-01-09T09:26:33.462Z,1.97
2019-01-09T09:28:59.298Z,1.40
2019-01-09T09:31:25.155Z,1.57
2019-01-09T09:33:50.980Z,1.87
2019-01-09T09:36:16.835Z,1.47
2019-01-09T09:38:42.682Z,1.70
2019-01-09T09:41:08.525Z,1.80
2019-01-09T09:43:34.447Z,1.80
2019-01-09T09:46:00.345Z,1.53
2019-01-09T09:48:26.125Z,1.40
2019-01-09T09:50:52.107Z,1.77
2019-01-09T09:53:18.003Z,1.60
2019-01-09T09:55:43.850Z,1.50
2019-01-09T09:58:09.672Z,1.80
2019-01-09T10:00:35.532Z,1.40
2019-01-09T10:03:01.392Z,1.40
2019-01-09T10:05:27.241Z,1.20
2019-01-09T10:07:53.067Z,1.80
2019-01-09T10:10:19.009Z,1.87
2019-01-09T10:12:44.844Z,1.63
2019-01-09T10:15:15.330Z,2.30
2019-01-09T10:17:41.366Z,1.70
2019-01-09T10:20:10.527Z,1.77
2019-01-09T10:22:36.352Z,1.60
2019-01-09T10:25:02.297Z,2.03
2019-01-09T10:27:28.242Z,2.00
2019-01-09T10:29:54.106Z,1.80
2019-01-09T10:32:19.926Z,1.97
2019-01-09T10:34:45.798Z,1.87
2019-01-09T10:37:11.655Z,1.90
2019-01-09T10:39:37.894Z,2.10
2019-01-09T10:42:03.734Z,1.67
2019-01-09T10:44:29.585Z,1.50
2019-01-09T10:46:55.438Z,1.50
2019-01-09T10:49:21.256Z,1.60
2019-01-09T10:51:47.097Z,2.00
2019-01-09T10:54:12.904Z,1.87
2019-01-09T10:56:38.747Z,1.40
2019-01-09T10:59:04.766Z,1.80
2019-01-09T11:01:30.626Z,1.87
2019-01-09T11:03:56.453Z,1.50
2019-01-09T11:06:22.304Z,1.67
2019-01-09T11:08:48.226Z,1.70
2019-01-09T11:11:14.066Z,2.37
2019-01-09T11:13:39.881Z,1.80
2019-01-09T11:16:07.628Z,1.80
2019-01-09T11:18:33.568Z,1.80
2019-01-09T11:20:59.413Z,1.73
2019-01-09T11:23:25.218Z,1.70
2019-01-09T11:25:51.029Z,1.57
2019-01-09T11:28:16.874Z,1.73
2019-01-09T11:30:42.798Z,1.80
2019-01-09T11:33:08.633Z,1.90
2019-01-09T11:35:34.466Z,1.80
2019-01-09T11:38:00.326Z,1.73
2019-01-09T11:40:26.276Z,1.70
2019-01-09T11:42:52.239Z,1.70
2019-01-09T11:45:18.780Z,2.30
2019-01-09T11:47:45.025Z,1.70
2019-01-09T11:50:12.617Z,2.10
2019-01-09T11:52:38.613Z,2.00
2019-01-09T11:55:07.357Z,2.47
2019-01-09T11:57:33.196Z,2.00
2019-01-09T11:59:59.032Z,1.97
2019-01-09T12:02:24.881Z,1.80
2019-01-09T12:04:50.720Z,1.87
2019-01-09T12:07:16.930Z,2.07
2019-01-09T12:09:42.750Z,2.57
2019-01-09T12:12:08.590Z,1.97
2019-01-09T12:14:34.472Z,2.03
2019-01-09T12:17:00.310Z,2.60
2019-01-09T12:19:26.135Z,2.10
2019-01-09T12:21:51.977Z,1.70
2019-01-09T12:24:17.820Z,1.83
2019-01-09T12:26:43.706Z,1.50
2019-01-09T12:29:09.534Z,1.60
2019-01-09T12:31:35.405Z,2.00
2019-01-09T12:34:01.261Z,1.60
2019-01-09T12:36:27.097Z,1.73
2019-01-09T12:38:53.045Z,2.00
2019-01-09T12:41:18.867Z,1.80
2019-01-09T12:43:44.713Z,2.23
2019-01-09T12:46:10.568Z,2.03
2019-01-09T12:48:36.424Z,1.93
2019-01-09T12:51:02.630Z,1.67
2019-01-09T12:53:33.870Z,1.63
2019-01-09T12:55:56.203Z,1.77
2019-01-09T12:58:22.053Z,2.23
2019-01-09T13:00:47.892Z,1.87
2019-01-09T13:03:13.815Z,1.80
2019-01-09T13:05:39.847Z,2.37
2019-01-09T13:08:05.813Z,1.40
2019-01-09T13:10:31.633Z,1.70
2019-01-09T13:12:57.471Z,1.67
2019-01-09T13:15:23.305Z,1.53
2019-01-09T13:17:49.333Z,1.87
2019-01-09T13:20:15.875Z,2.00
2019-01-09T13:22:41.744Z,2.00
2019-01-09T13:25:09.676Z,1.77
2019-01-09T13:27:35.532Z,1.60
2019-01-09T13:30:01.481Z,2.17
2019-01-09T13:32:27.315Z,1.90
2019-01-09T13:34:53.121Z,1.67
2019-01-09T13:37:18.972Z,1.70
2019-01-09T13:39:44.794Z,1.93
2019-01-09T13:42:10.755Z,2.10
2019-01-09T13:44:36.598Z,2.30
2019-01-09T13:47:02.840Z,1.67
2019-01-09T13:49:28.784Z,1.70
2019-01-09T13:51:54.641Z,1.50
2019-01-09T13:54:20.490Z,2.10
2019-01-09T13:56:46.333Z,2.10
2019-01-09T13:59:12.194Z,1.73
2019-01-09T14:01:38.032Z,1.63
2019-01-09T14:04:03.963Z,1.50
2019-01-09T14:06:29.800Z,2.03
2019-01-09T14:08:55.629Z,1.50
2019-01-09T14:11:21.489Z,1.97
2019-01-09T14:13:47.333Z,1.63
2019-01-09T14:16:13.173Z,1.60
2019-01-09T14:18:39.021Z,2.03
2019-01-09T14:21:04.930Z,1.83
2019-01-09T14:23:30.802Z,2.40
2019-01-09T14:25:56.643Z,2.00
2019-01-09T14:28:23.338Z,1.90
2019-01-09T14:30:49.676Z,2.00
2019-01-09T14:33:15.520Z,1.80
2019-01-09T14:35:41.351Z,2.13
2019-01-09T14:38:07.206Z,2.30
2019-01-09T14:40:33.025Z,1.80
2019-01-09T14:42:58.890Z,2.00
2019-01-09T14:45:24.817Z,1.90
2019-01-09T14:47:50.625Z,2.10
2019-01-09T14:50:18.555Z,1.80
2019-01-09T14:52:44.595Z,2.03
2019-01-09T14:55:10.947Z,2.00
2019-01-09T14:57:36.914Z,2.00
2019-01-09T15:00:06.592Z,2.40
2019-01-09T15:02:32.512Z,2.10
2019-01-09T15:04:58.430Z,1.70
2019-01-09T15:07:24.235Z,2.33
2019-01-09T15:09:56.593Z,1.77
2019-01-09T15:12:17.834Z,2.07
2019-01-09T15:14:43.694Z,2.17
2019-01-09T15:17:09.543Z,2.30
2019-01-09T15:19:35.372Z,2.10
2019-01-09T15:22:01.203Z,3.37
2019-01-09T15:24:27.082Z,2.40
2019-01-09T15:26:52.889Z,2.07
2019-01-09T15:29:18.733Z,2.10
2019-01-09T15:31:44.573Z,2.00
2019-01-09T15:34:10.392Z,2.17
2019-01-09T15:36:37.485Z,2.10
2019-01-09T15:39:05.956Z,1.97
2019-01-09T15:41:31.779Z,2.37
2019-01-09T15:43:57.670Z,2.43
2019-01-09T15:46:24.061Z,2.70
2019-01-09T15:48:50.065Z,2.50
2019-01-09T15:51:15.886Z,2.63
2019-01-09T15:53:41.725Z,2.33
2019-01-09T15:56:07.713Z,2.47
2019-01-09T15:58:33.534Z,2.63
2019-01-09T16:00:59.469Z,2.50
2019-01-09T16:03:25.362Z,2.30
2019-01-09T16:05:51.196Z,3.03
2019-01-09T16:08:17.159Z,2.20
2019-01-09T16:10:43.000Z,3.10
2019-01-09T16:13:08.886Z,3.20
2019-01-09T16:15:34.726Z,3.00
2019-01-09T16:18:00.582Z,2.77
2019-01-09T16:20:26.405Z,2.30
2019-01-09T16:22:52.266Z,3.13
2019-01-09T16:25:18.474Z,2.80
2019-01-09T16:27:44.313Z,3.40
2019-01-09T16:30:34.064Z,3.53
2019-01-09T16:32:56.759Z,3.93
2019-01-09T16:35:22.741Z,4.23
2019-01-09T16:37:48.704Z,2.30
2019-01-09T16:40:23.012Z,3.63
2019-01-09T16:42:42.905Z,2.53
2019-01-09T16:45:10.853Z,2.60
2019-01-09T16:47:36.779Z,3.57
2019-01-09T16:50:05.830Z,2.80
2019-01-09T16:52:31.650Z,3.00
2019-01-09T16:54:57.496Z,3.67
2019-01-09T16:57:23.348Z,2.97
2019-01-09T16:59:49.357Z,3.30
2019-01-09T17:02:15.196Z,14.87
2019-01-09T17:04:41.020Z,8.23
2019-01-09T17:07:06.953Z,5.83
2019-01-09T17:09:32.797Z,8.70
2019-01-09T17:11:58.652Z,15.90
2019-01-09T17:14:24.493Z,16.70
2019-01-09T17:16:50.640Z,6.83
2019-01-09T17:19:16.495Z,6.20
2019-01-09T17:21:42.332Z,4.23
2019-01-09T17:24:08.159Z,3.80
2019-01-09T17:26:34.131Z,3.90
2019-01-09T17:29:00.074Z,3.40
2019-01-09T17:31:25.973Z,3.90
2019-01-09T17:33:51.827Z,3.50
2019-01-09T17:36:17.639Z,3.67
2019-01-09T17:38:43.480Z,3.27
2019-01-09T17:41:09.284Z,2.73
2019-01-09T17:43:35.142Z,3.70
2019-01-09T17:46:00.976Z,3.80
2019-01-09T17:48:26.797Z,3.70
2019-01-09T17:50:52.633Z,3.30
2019-01-09T17:53:18.451Z,4.00
2019-01-09T17:55:44.616Z,3.60
2019-01-09T17:58:10.457Z,4.07
2019-01-09T18:00:38.603Z,3.97
2019-01-09T18:03:04.585Z,4.13
2019-01-09T18:05:30.419Z,3.80
2019-01-09T18:07:56.256Z,2.73
2019-01-09T18:10:23.955Z,3.33
2019-01-09T18:12:49.961Z,3.67
2019-01-09T18:15:18.120Z,3.60
2019-01-09T18:17:44.052Z,3.30
2019-01-09T18:20:12.903Z,3.83
2019-01-09T18:22:38.846Z,3.43
2019-01-09T18:25:12.647Z,4.40
2019-01-09T18:27:38.348Z,4.80
2019-01-09T18:30:10.886Z,4.07
2019-01-09T18:32:36.878Z,3.77
2019-01-09T18:35:06.561Z,3.97
2019-01-09T18:37:41.954Z,3.00
2019-01-09T18:40:11.647Z,3.80
2019-01-09T18:42:59.383Z,4.20
2019-01-09T18:45:41.341Z,3.60
2019-01-09T18:48:19.726Z,3.93
2019-01-09T18:51:10.850Z,3.83
2019-01-09T18:53:36.691Z,4.73
2019-01-09T18:56:02.919Z,4.87
2019-01-09T18:58:28.759Z,4.90
2019-01-09T19:00:54.615Z,8.83
2019-01-09T19:03:20.467Z,7.23
2019-01-09T19:05:46.426Z,3.97
2019-01-09T19:08:12.456Z,3.77
2019-01-09T19:10:38.392Z,4.97
2019-01-09T19:13:04.241Z,4.67
2019-01-09T19:15:30.158Z,4.00
2019-01-09T19:17:56.003Z,4.17
2019-01-09T19:20:21.938Z,3.80
2019-01-09T19:22:48.108Z,4.40
2019-01-09T19:25:15.150Z,4.70
2019-01-09T19:27:41.112Z,3.90
2019-01-09T19:30:10.770Z,3.50
2019-01-09T19:32:36.699Z,4.17
2019-01-09T19:35:04.344Z,4.00
2019-01-09T19:37:30.380Z,5.17
2019-01-09T19:39:56.192Z,22.57
2019-01-09T19:42:22.067Z,3.90
2019-01-09T19:44:47.914Z,6.07
2019-01-09T19:47:13.755Z,4.03
2019-01-09T19:49:39.577Z,8.00
2019-01-09T19:52:05.431Z,3.70
2019-01-09T19:54:31.303Z,3.70
2019-01-09T19:56:57.267Z,3.97
2019-01-09T19:59:23.216Z,3.57
2019-01-09T20:01:49.171Z,3.40
2019-01-09T20:04:15.048Z,4.30
2019-01-09T20:06:40.903Z,3.97
2019-01-09T20:09:07.025Z,3.60
2019-01-09T20:11:32.929Z,4.93
2019-01-09T20:13:58.833Z,4.60
2019-01-09T20:16:24.909Z,3.57
2019-01-09T20:18:50.803Z,4.20
2019-01-09T20:21:16.855Z,4.23
2019-01-09T20:23:42.718Z,9.40
2019-01-09T20:26:08.547Z,7.63
2019-01-09T20:28:34.509Z,5.43
2019-01-09T20:31:00.367Z,3.90
2019-01-09T20:33:26.274Z,5.20
2019-01-09T20:35:52.208Z,3.93
2019-01-09T20:38:18.418Z,4.07
2019-01-09T20:40:44.264Z,3.30
2019-01-09T20:43:10.122Z,4.67
2019-01-09T20:45:36.035Z,3.80
2019-01-09T20:48:02.200Z,4.00
2019-01-09T20:50:28.558Z,3.73
2019-01-09T20:52:54.615Z,3.63
2019-01-09T20:55:21.348Z,3.43
2019-01-09T20:57:47.618Z,3.13
2019-01-09T21:00:22.462Z,3.10
2019-01-09T21:02:48.470Z,3.10
2019-01-09T21:05:23.953Z,2.93
2019-01-09T21:07:49.927Z,3.03
2019-01-09T21:10:16.319Z,3.80
2019-01-09T21:12:42.185Z,3.03
2019-01-09T21:15:11.586Z,3.10
2019-01-09T21:17:37.377Z,2.67
2019-01-09T21:20:07.109Z,3.40
2019-01-09T21:22:32.957Z,3.10
2019-01-09T21:24:58.885Z,2.83
2019-01-09T21:27:24.748Z,2.50
2019-01-09T21:29:50.586Z,3.07
2019-01-09T21:32:16.421Z,3.53
2019-01-09T21:34:42.239Z,3.07
2019-01-09T21:37:08.064Z,2.80
2019-01-09T21:39:33.910Z,2.83
2019-01-09T21:41:59.856Z,3.00
2019-01-09T21:44:25.805Z,3.60
2019-01-09T21:46:51.646Z,2.60
2019-01-09T21:49:17.501Z,3.30
2019-01-09T21:51:43.317Z,4.00
2019-01-09T21:54:09.170Z,3.20
2019-01-09T21:56:35.024Z,3.20
2019-01-09T21:59:00.885Z,2.60
2019-01-09T22:01:26.719Z,3.00
2019-01-09T22:03:52.565Z,2.97
2019-01-09T22:06:18.380Z,1.90
2019-01-09T22:08:44.226Z,2.97
2019-01-09T22:11:10.049Z,3.60
2019-01-09T22:13:35.885Z,3.37
2019-01-09T22:16:01.892Z,4.17
2019-01-09T22:18:27.755Z,3.10
2019-01-09T22:20:53.579Z,2.70
2019-01-09T22:23:19.492Z,2.97
2019-01-09T22:25:45.417Z,3.20
2019-01-09T22:28:11.285Z,2.03
2019-01-09T22:30:37.117Z,2.70
2019-01-09T22:33:03.133Z,2.83
2019-01-09T22:35:28.886Z,2.50
2019-01-09T22:37:54.843Z,3.00
2019-01-09T22:40:21.390Z,3.20
2019-01-09T22:42:47.358Z,2.30
2019-01-09T22:45:14.289Z,2.60
2019-01-09T22:47:40.149Z,3.07
2019-01-09T22:50:09.202Z,2.83
2019-01-09T22:52:35.053Z,3.00
2019-01-09T22:55:00.919Z,3.40
2019-01-09T22:57:26.747Z,2.83
2019-01-09T22:59:52.574Z,2.60
2019-01-09T23:02:19.328Z,2.67
2019-01-09T23:04:45.268Z,2.93
2019-01-09T23:07:11.238Z,2.70
2019-01-09T23:09:37.087Z,2.77
2019-01-09T23:12:03.210Z,2.30
2019-01-09T23:14:29.162Z,2.90
2019-01-09T23:16:55.040Z,2.60
2019-01-09T23:19:20.961Z,2.83
2019-01-09T23:21:46.779Z,2.57
2019-01-09T23:24:12.934Z,2.20
2019-01-09T23:26:38.811Z,3.07
2019-01-09T23:29:04.775Z,2.07
2019-01-09T23:31:30.706Z,3.00
2019-01-09T23:33:56.833Z,2.17
2019-01-09T23:36:22.670Z,2.43
2019-01-09T23:38:48.516Z,2.93
2019-01-09T23:41:14.431Z,2.50
2019-01-09T23:43:40.475Z,1.57
2019-01-09T23:46:06.344Z,1.90
2019-01-09T23:48:32.174Z,2.83
2019-01-09T23:50:58.097Z,2.60
2019-01-09T23:53:23.929Z,1.97
2019-01-09T23:55:49.764Z,2.93
2019-01-09T23:58:15.592Z,1.93
